Airfield :
LOGIN :

Register | Disclaimer

   EN    FR    IT 

 










Legend :    VFR   Marginal VFR   IFR   Intensive IFR   Very Intensive IFR
Visi :
Ceiling :
>= 8 km
>= 3000ft
5 to 8 km
1000 to 3000 ft
1500m to 5 km
500 to 1000 ft
800 to 1500m
200 to 500 ft
< 800m
< 200 ft
Symbols :   Thunderstorms  Fog  Heavy snow  Heavy precipitations  Wind > 20 kt
SIGMETs :     Misc.  Thunderstorms  Icing  Turbulence  Mountain Waves  Volcanic Ashes







- Airport Elevation : 70 ft
- IATA code : LEI


LEAM - Almeria

CURRENT METAR :
  • 222200Z AUTO VRB05KT 9999 NCD 26/08 Q1012

EXPIRED METARs :
  • 222130Z AUTO 04015G27KT 350V070 CAVOK 26/08 Q1012
  • 222100Z AUTO 03010KT 350V070 CAVOK 26/08 Q1012
  • 222030Z 05013KT CAVOK 26/08 Q1012
  • 222000Z 04011KT 320V080 CAVOK 26/08 Q1011
  • 221930Z 06016KT 9999 FEW090 25/09 Q1011

TAF TAF LEAM
Valid from the 22 at 21:00 until the 23 at 21:00 UTC


222000Z 2221/2321 34015KT 9999 FEW080 TX29/2315Z TN17/2306Z
TEMPO 2303/2309 VRB03KT
BECMG 2309/2311 06018KT
PROB40
TEMPO 2313/2321 06025G38KT
No reported NOTAMs for that airfield.
1 SIGMET reported for the Madrid FIR (LECM) :
 
Embedded thunderstorms
LECM SIGMET 14 VALID 222115/222350 LEVA
LECM MADRID FIR/UIR EMBD TS OBS AT 2049Z WI N3554 W00722 - N4003 W00653 - N4057 W00344 - N4008 W00255 - N3554 W00258 - N3554 W00722 TOP FL360 MOV N 20KT NC=



MET'MAP, your aeronautical weather chart ! - Copyright ORBIFLY December 2007 - Disclaimer

ORBIFLY MET'MAP TEAM :

Programming & Development : Alexandra Zaïnal
Concept & Development : Baudouin d'Aumeries
Co-Development & Prog : Marc-Olivier Méhu
Technical & hardware support : Manuel Goepfert

Contact : metmap@orbifly.com




SOURCES & CREDITS :

   NOAA